KBEH/BEH METAR and TAF weather

Enter ICAO airport designator
Station Type Date Time Source
KBEH METAR 2020/12/05 05:53 UTC NOAA

KBEH 050553Z AUTO 07007KT 10SM OVC028 02/M04 A3004 RMK AO2 SLP177 T00221044 10056 20022 51011 $


Station Type Date Time Source
KBEH Decoded METAR 2020/12/05 05:53 UTC NOAA

SOUTHWEST MICHIGAN REGIONAL, MI, United States (KBEH) 42-08N 86-25W 191M
Dec 05, 2020 - 12:53 AM EST / 2020.12.05 0553 UTC
Wind: from the ENE (070 degrees) at 8 MPH (7 KT):0
Visibility: 10 mile(s):0
Sky conditions: overcast
Temperature: 36.0 F (2.2 C)
Dew Point: 24.1 F (-4.4 C)
Relative Humidity: 61%
Pressure (altimeter): 30.04 in. Hg (1017 hPa)
Pressure tendency: 0.03 inches (1.1 hPa) higher than three hours ago
ob: KBEH 050553Z AUTO 07007KT 10SM OVC028 02/M04 A3004 RMK AO2 SLP177 T00221044 10056 20022 51011
cycle: 6

Station Type Date Time Source
KBEH TAF UTC NOAA

Error!

Example: see airport list